Latest Weather Observations for Mildura

IDN60801

Issued at 3:23 pm EDT Tuesday 18 January 2022 (issued every 10 minutes, with the page automatically refreshed every 10 minutes)

About weather observations | Map of weather stations | Latest weather observations for NSW | Other Formats
Station Details ID: 076031 Name: MILDURA AIRPORT Lat: -34.24 Lon: 142.09 Height: 50.0 m
Data from the previous 72 hours. | See also: Recent months at Mildura
Date/Time
EDT
Temp
°C
App
Temp
°C
Dew
Point
°C
Rel
Hum
%
Delta-T
°C
Wind Press
QNH
hPa
Press
MSL
hPa
Rain since
9am
mm
Dir  Spd
km/h
Gust
km/h
Spd
kts
Gust
kts
18/03:00pm 26.6 23.2 7.6 30 10.2 SE 15 22 8 12 1012.8 1012.6 0.0
18/02:30pm 26.4 22.4 8.4 32 9.7 SE 19 26 10 14 1013.3 1013.1 0.0
18/02:00pm 26.0 21.9 8.5 33 9.5 SE 20 30 11 16 1013.4 1013.2 0.0
18/01:30pm 26.5 22.6 9.4 34 9.4 SE 20 28 11 15 1013.6 1013.4 0.0
18/01:00pm 26.4 22.5 9.3 34 9.4 SSE 20 32 11 17 1013.8 1013.6 0.0
18/12:30pm 25.1 21.2 9.4 37 8.6 SSE 20 32 11 17 1014.3 1014.1 0.0
18/12:00pm 24.3 20.5 9.1 38 8.2 SSE 19 28 10 15 1014.5 1014.3 0.0
18/11:30am 22.4 19.1 9.6 44 6.9 SSE 17 24 9 13 1015.0 1014.8 0.0
18/11:00am 21.0 17.5 8.9 46 6.4 S 17 26 9 14 1015.3 1015.1 0.0
18/10:30am 20.5 16.9 8.5 46 6.3 S 17 24 9 13 1015.2 1015.0 0.0
18/10:05am 20.3 17.2 8.9 48 6.0 S 15 24 8 13 1015.1 1014.9 0.0
18/10:00am 19.9 16.4 8.6 48 5.9 S 17 24 9 13 1015.2 1015.0 0.0
18/09:51am 19.8 16.2 8.5 48 5.9 S 17 28 9 15 1015.1 1014.9 0.0
18/09:30am 19.6 16.1 8.6 49 5.7 S 17 26 9 14 1015.0 1014.8 0.0
18/09:00am 19.2 15.3 8.5 50 5.6 S 19 28 10 15 1014.7 1014.5 0.0
18/08:30am 17.9 14.0 8.5 54 4.9 SSE 19 28 10 15 1014.5 1014.3 0.0
18/08:00am 17.6 14.3 8.2 54 4.8 SSE 15 24 8 13 1014.3 1014.1 0.0
18/07:30am 17.6 14.7 8.2 54 4.8 S 13 22 7 12 1013.9 1013.7 0.0
18/07:00am 17.7 14.1 8.3 54 4.8 SSE 17 24 9 13 1013.5 1013.3 0.0
18/06:30am 18.1 13.9 8.4 53 5.0 SSE 20 32 11 17 1012.8 1012.6 0.0
18/06:00am 18.7 14.9 8.9 53 5.1 SSE 19 30 10 16 1012.4 1012.2 0.0
18/05:30am 19.5 15.4 8.8 50 5.6 SSE 20 35 11 19 1011.9 1011.7 0.0
18/05:00am 20.1 15.7 9.1 49 5.8 S 22 39 12 21 1011.6 1011.4 0.0
18/04:30am 20.5 16.7 9.1 48 6.0 S 19 28 10 15 1011.4 1011.2 0.0
18/04:00am 20.9 17.5 9.2 47 6.2 S 17 28 9 15 1011.4 1011.2 0.0
18/03:30am 21.4 17.3 8.7 44 6.7 S 20 32 11 17 1011.5 1011.3 0.0
18/03:00am 21.9 17.9 8.4 42 7.1 S 19 32 10 17 1011.6 1011.4 0.0
18/02:30am 22.6 18.5 8.0 39 7.7 SSW 19 26 10 14 1011.8 1011.6 0.0
18/02:00am 23.8 20.3 7.4 35 8.6 S 15 22 8 12 1011.8 1011.6 0.0
18/01:30am 22.7 22.2 12.0 50 6.1 W 6 9 3 5 1011.9 1011.7 0.0
18/01:00am 22.7 21.2 12.0 50 6.1 SSW 11 22 6 12 1011.9 1011.7 0.0
18/12:30am 22.8 23.6 12.4 52 5.9 CALM 0 0 0 0 1011.9 1011.7 0.0
18/12:00am 23.1 23.1 12.4 51 6.1 N 4 7 2 4 1011.8 1011.6 0.0
 
Date/Time
EDT
Temp
°C
App
Temp
°C
Dew
Point
°C
Rel
Hum
%
Delta-T
°C
Wind Press
QNH
hPa
Press
MSL
hPa
Rain since
9am
mm
Dir  Spd
km/h
Gust
km/h
Spd
kts
Gust
kts
17/11:30pm 23.3 22.7 12.3 50 6.3 NNE 7 9 4 5 1011.9 1011.7 0.0
17/11:00pm 23.7 22.2 12.0 47 6.7 NNW 11 17 6 9 1011.9 1011.7 0.0
17/10:30pm 24.0 22.2 12.0 47 6.8 N 13 20 7 11 1011.9 1011.7 0.0
17/10:00pm 24.7 21.9 11.3 43 7.6 NNW 17 22 9 12 1011.9 1011.7 0.0
17/09:30pm 25.9 23.5 8.8 34 9.3 N 11 15 6 8 1011.8 1011.6 0.0
17/09:00pm 26.3 24.3 8.8 33 9.5 N 9 13 5 7 1011.5 1011.3 0.0
17/08:30pm 26.7 24.7 8.6 32 9.8 N 9 13 5 7 1011.2 1011.0 0.0
17/08:00pm 27.1 24.2 8.0 30 10.3 N 13 17 7 9 1011.0 1010.8 0.0
17/07:30pm 27.4 24.5 8.3 30 10.4 N 13 17 7 9 1010.7 1010.5 0.0
17/07:00pm 27.7 24.2 8.6 30 10.5 NNE 17 20 9 11 1010.5 1010.3 0.0
17/06:30pm 27.6 24.4 8.5 30 10.4 NNE 15 20 8 11 1010.2 1010.0 0.0
17/06:00pm 27.6 24.4 8.5 30 10.4 NNE 15 20 8 11 1010.1 1009.9 0.0
17/05:30pm 27.6 24.8 8.5 30 10.4 NNE 13 20 7 11 1010.2 1010.0 0.0
17/05:00pm 28.0 27.1 7.8 28 10.9 S 2 9 1 5 1010.2 1010.0 0.0
17/04:30pm 27.7 26.0 7.5 28 10.8 SW 6 11 3 6 1010.4 1010.2 0.0
17/04:00pm 27.0 25.3 8.4 31 10.1 S 7 11 4 6 1010.6 1010.4 0.0
17/03:30pm 27.3 24.8 8.2 30 10.4 SSW 11 22 6 12 1010.9 1010.7 0.0
17/03:00pm 25.3 22.5 8.7 35 9.0 S 13 20 7 11 1011.1 1010.9 0.0
17/02:30pm 25.2 22.5 9.1 36 8.8 SSW 13 20 7 11 1011.1 1010.9 0.0
17/02:00pm 24.9 22.4 9.6 38 8.4 SSW 13 22 7 12 1011.2 1011.0 0.0
17/01:30pm 24.0 21.6 9.9 41 7.7 S 13 20 7 11 1011.4 1011.2 0.0
17/01:00pm 23.2 21.3 11.9 49 6.4 SSW 13 20 7 11 1011.9 1011.7 0.0
17/12:30pm 21.0 18.7 11.9 56 5.1 SW 15 20 8 11 1012.6 1012.4 0.0
17/12:00pm 19.9 17.4 12.4 62 4.2 SW 17 28 9 15 1012.5 1012.3 0.0
17/11:30am 19.2 16.9 12.9 67 3.6 SW 17 24 9 13 1012.1 1011.9 0.0
17/11:00am 19.5 17.1 12.8 65 3.8 SW 17 26 9 14 1012.1 1011.9 0.0
17/10:30am 19.7 18.1 12.9 65 3.8 WSW 13 19 7 10 1012.5 1012.3 0.0
17/10:00am 19.3 18.1 12.8 66 3.7 S 11 19 6 10 1011.5 1011.3 0.0
17/09:30am 19.2 17.6 12.9 67 3.6 SSW 13 19 7 10 1011.8 1011.6 0.0
17/09:00am 19.6 17.9 12.6 64 3.9 S 13 20 7 11 1011.6 1011.4 0.0
17/08:30am 19.4 17.1 12.9 66 3.7 SSW 17 24 9 13 1011.7 1011.5 0.0
17/08:00am 20.1 18.5 11.6 58 4.7 SW 11 17 6 9 1011.8 1011.6 0.0
17/07:30am 20.2 18.5 11.1 56 5.0 SW 11 17 6 9 1010.9 1010.7 0.0
17/07:00am 20.3 18.2 11.0 55 5.1 WSW 13 19 7 10 1010.8 1010.6 0.0
17/06:30am 20.6 18.8 10.7 53 5.4 SW 11 19 6 10 1009.9 1009.7 0.0
17/06:00am 20.9 18.7 10.7 52 5.6 SSW 13 17 7 9 1009.4 1009.2 0.0
17/05:30am 21.2 18.3 11.0 52 5.6 SW 17 26 9 14 1009.5 1009.3 0.0
17/05:00am 21.8 19.3 10.9 50 6.0 SW 15 20 8 11 1008.8 1008.6 0.0
17/04:30am 22.1 20.0 11.2 50 6.1 S 13 20 7 11 1007.8 1007.6 0.0
17/04:00am 22.4 19.4 10.5 47 6.6 SSW 17 26 9 14 1008.1 1007.9 0.0
17/03:30am 23.0 19.5 10.1 44 7.1 S 19 33 10 18 1007.6 1007.4 0.0
17/03:00am 23.5 20.2 9.5 41 7.6 SW 17 26 9 14 1008.7 1008.5 0.0
17/02:30am 24.1 21.0 8.9 38 8.2 SW 15 26 8 14 1009.4 1009.2 0.0
17/02:00am 24.9 22.2 8.8 36 8.7 SW 13 24 7 13 1009.1 1008.9 0.0
17/01:30am 25.5 21.8 8.1 33 9.3 WSW 17 28 9 15 1009.2 1009.0 0.0
17/01:00am 26.4 23.8 9.3 34 9.4 W 13 20 7 11 1009.8 1009.6 0.0
17/12:30am 27.3 23.0 7.2 28 10.7 WSW 19 39 10 21 1009.3 1009.1 0.0
17/12:00am 28.4 23.2 7.1 26 11.4 WSW 24 41 13 22 1008.4 1008.2 0.0
 
Date/Time
EDT
Temp
°C
App
Temp
°C
Dew
Point
°C
Rel
Hum
%
Delta-T
°C
Wind Press
QNH
hPa
Press
MSL
hPa
Rain since
9am
mm
Dir  Spd
km/h
Gust
km/h
Spd
kts
Gust
kts
16/11:30pm 29.7 26.2 8.7 27 11.6 WSW 17 35 9 19 1008.0 1007.8 0.0
16/11:00pm 30.9 26.9 9.2 26 12.2 WSW 20 30 11 16 1007.4 1007.2 0.0
16/10:30pm 32.7 29.2 10.1 25 13.0 SW 19 30 10 16 1006.1 1005.8 0.0
16/10:00pm 34.7 32.8 7.7 19 15.1 WNW 7 26 4 14 1005.0 1004.7 0.0
16/09:30pm 34.6 34.0 7.6 19 15.0 CALM 0 0 0 0 1004.2 1003.9 0.0
16/09:00pm 35.8 33.8 6.1 16 16.3 WSW 6 9 3 5 1003.9 1003.6 0.0
16/08:30pm 36.4 34.3 6.6 16 16.5 W 7 15 4 8 1003.6 1003.3 0.0
16/08:00pm 37.4 36.0 7.3 16 17.0 W 4 9 2 5 1003.2 1002.9 0.0
16/07:30pm 38.5 35.9 6.3 14 17.9 WNW 9 19 5 10 1002.9 1002.6 0.0
16/07:00pm 39.0 36.7 5.6 13 18.5 NNW 7 17 4 9 1002.8 1002.5 0.0
16/06:30pm 38.4 35.8 6.2 14 17.9 NNW 9 13 5 7 1002.8 1002.5 0.0
16/06:00pm 38.4 34.4 5.1 13 18.3 NNW 15 22 8 12 1002.9 1002.6 0.0
16/05:30pm 39.3 36.8 4.7 12 18.9 NW 7 13 4 7 1003.0 1002.7 0.0
16/05:00pm 40.5 37.0 5.6 12 19.5 W 13 22 7 12 1003.3 1003.0 0.0
16/04:30pm 38.1 33.7 4.9 13 18.1 NW 17 26 9 14 1003.7 1003.4 0.0
16/04:00pm 38.9 35.4 5.5 13 18.5 NNE 13 24 7 13 1003.8 1003.5 0.0
16/03:30pm 38.1 35.1 6.0 14 17.8 WNW 11 17 6 9 1004.2 1003.9 0.0
16/03:00pm 37.7 34.2 5.6 14 17.7 WNW 13 26 7 14 1004.7 1004.4 0.0
16/02:30pm 37.3 33.4 5.3 14 17.4 NW 15 24 8 13 1005.1 1004.8 0.0
16/02:00pm 36.6 32.2 4.8 14 17.2 NNW 17 32 9 17 1005.6 1005.3 0.0
16/01:30pm 36.4 32.6 5.6 15 16.8 NNW 15 24 8 13 1005.9 1005.6 0.0
16/01:00pm 36.5 33.2 6.6 16 16.6 NNW 13 24 7 13 1006.2 1005.9 0.0
16/12:30pm 35.4 32.1 6.6 17 15.9 NNE 13 20 7 11 1006.5 1006.2 0.0
16/12:00pm 35.2 32.1 7.3 18 15.6 NNE 13 20 7 11 1006.6 1006.3 0.0
16/11:30am 34.2 30.2 6.5 18 15.1 NNE 17 30 9 16 1006.7 1006.4 0.0
16/11:00am 32.6 28.8 7.4 21 13.9 NE 17 22 9 12 1006.9 1006.7 0.0
16/10:30am 31.4 27.4 8.4 24 12.8 NE 19 24 10 13 1006.7 1006.4 0.0
16/10:00am 30.3 27.3 9.2 27 11.8 ENE 15 20 8 11 1006.9 1006.7 0.0
16/09:30am 28.6 25.9 10.3 32 10.3 ENE 15 20 8 11 1007.2 1007.0 0.0
16/09:00am 26.7 24.8 10.4 36 9.2 ENE 11 17 6 9 1007.2 1007.0 0.0
16/08:30am 24.0 22.2 11.0 44 7.3 ENE 11 17 6 9 1007.2 1007.0 0.0
16/08:00am 22.3 20.8 10.5 47 6.5 ENE 9 15 5 8 1006.9 1006.7 0.0
16/07:30am 21.2 19.8 9.4 47 6.3 ESE 7 9 4 5 1006.4 1006.1 0.0
16/07:00am 20.0 18.7 9.3 50 5.7 E 6 9 3 5 1006.3 1006.0 0.0
16/06:30am 19.3 19.1 9.2 52 5.3 CALM 0 7 0 4 1006.0 1005.7 0.0
16/06:00am 19.7 19.6 9.3 51 5.5 CALM 0 0 0 0 1005.9 1005.6 0.0
16/05:30am 19.7 19.2 9.3 51 5.5 E 2 7 1 4 1005.8 1005.5 0.0
16/05:00am 19.8 19.6 9.1 50 5.7 CALM 0 0 0 0 1005.7 1005.4 0.0
16/04:30am 20.2 20.1 9.5 50 5.7 CALM 0 2 0 1 1005.7 1005.4 0.0
16/04:00am 20.9 19.5 8.9 46 6.4 ESE 6 7 3 4 1005.4 1005.1 0.0
16/03:30am 21.6 20.1 8.5 43 6.9 ESE 6 9 3 5 1005.5 1005.2 0.0
16/03:00am 21.8 20.4 8.7 43 7.0 SE 6 7 3 4 1005.6 1005.3 0.0
16/02:30am 21.9 21.2 8.4 42 7.1 SE 2 6 1 3 1006.0 1005.7 0.0
16/02:00am 22.8 21.9 7.8 38 7.9 ESE 2 7 1 4 1005.9 1005.6 0.0
16/01:30am 23.5 21.7 8.0 37 8.2 ESE 7 9 4 5 1006.0 1005.7 0.0
16/01:00am 23.5 21.8 8.4 38 8.1 ESE 7 11 4 6 1006.0 1005.7 0.0
16/12:30am 24.1 22.6 8.5 37 8.4 SE 6 7 3 4 1006.4 1006.1 0.0
16/12:00am 24.0 23.7 8.8 38 8.2 CALM 0 0 0 0 1006.1 1005.8 0.0
 
Date/Time
EDT
Temp
°C
App
Temp
°C
Dew
Point
°C
Rel
Hum
%
Delta-T
°C
Wind Press
QNH
hPa
Press
MSL
hPa
Rain since
9am
mm
Dir  Spd
km/h
Gust
km/h
Spd
kts
Gust
kts
15/11:30pm 24.2 22.9 7.8 35 8.7 SE 4 6 2 3 1006.1 1005.8 0.0
15/11:00pm 24.8 23.2 7.9 34 9.0 SSE 6 7 3 4 1006.2 1005.9 0.0
15/10:30pm 25.4 25.0 8.4 34 9.2 CALM 0 0 0 0 1005.8 1005.5 0.0
15/10:00pm 26.8 25.4 7.3 29 10.4 SE 4 6 2 3 1005.8 1005.5 0.0
15/09:30pm 28.0 26.2 7.3 27 11.1 ESE 6 7 3 4 1005.9 1005.6 0.0
15/09:00pm 30.3 28.0 5.6 21 13.1 S 7 11 4 6 1005.6 1005.3 0.0
15/08:30pm 31.7 28.9 5.3 19 14.0 SSE 9 17 5 9 1005.4 1005.1 0.0
15/08:24pm 32.1 28.8 4.8 18 14.4 SSE 11 17 6 9 1005.2 1004.9 0.0
15/08:00pm 32.8 29.3 5.4 18 14.7 SSW 13 19 7 10 1003.1 1002.8 0.0
15/07:57pm 33.1 29.8 4.8 17 15.0 S 11 19 6 10 1002.7 1002.4 0.0
15/07:30pm 33.5 29.8 4.2 16 15.4 SSW 13 19 7 10 1004.9 1004.6 0.0
15/07:18pm 33.8 30.1 4.5 16 15.5 S 13 20 7 11 1006.2 1005.9 0.0
15/07:00pm 33.7 29.2 4.4 16 15.5 SSW 17 26 9 14 1004.1 1003.8 0.0
15/06:30pm 33.7 29.6 4.4 16 15.4 SSW 15 24 8 13 1003.9 1003.6 0.0
15/06:00pm 33.9 30.4 5.4 17 15.3 S 13 22 7 12 1003.8 1003.5 0.0
15/05:30pm 34.0 29.8 5.5 17 15.3 SSW 17 28 9 15 1003.9 1003.6 0.0
15/05:00pm 33.9 30.2 6.3 18 15.1 SW 15 22 8 12 1004.3 1004.0 0.0
15/04:30pm 33.3 30.0 6.6 19 14.5 S 13 20 7 11 1004.4 1004.1 0.0
15/04:00pm 33.0 29.3 7.8 21 14.0 S 17 33 9 18 1004.8 1004.5 0.0
15/03:30pm 32.9 29.1 7.7 21 13.9 SSW 17 30 9 16 1005.1 1004.8 0.0

Other formats

Comma delimited format used in spreadsheet applications
http://www.bom.gov.au/fwo/IDN60801/IDN60801.94693.axf

JavaScript Object Notation format (JSON) in row-major order
http://www.bom.gov.au/fwo/IDN60801/IDN60801.94693.json

Data quality

Most of these data are generated automatically and are frequently updated. Quality checks on data are not normally performed. It is possible for incorrect values to appear. Refer to information at About Latest Weather Observations and please check the disclaimer before using these data.